createdAt,value
2019-01-23T00:02:10.800Z,29.17
2019-01-23T00:04:39.209Z,29.20
2019-01-23T00:07:07.618Z,30.03
2019-01-23T00:09:36.051Z,29.50
2019-01-23T00:12:04.724Z,29.10
2019-01-23T00:14:33.468Z,29.23
2019-01-23T00:17:01.876Z,29.50
2019-01-23T00:19:30.281Z,28.33
2019-01-23T00:21:58.705Z,28.03
2019-01-23T00:24:27.105Z,29.10
2019-01-23T00:26:55.522Z,27.63
2019-01-23T00:29:23.968Z,27.07
2019-01-23T00:31:52.345Z,28.10
2019-01-23T00:34:20.748Z,26.93
2019-01-23T00:36:49.282Z,27.77
2019-01-23T00:39:17.685Z,27.37
2019-01-23T00:41:46.097Z,28.57
2019-01-23T00:44:14.789Z,27.63
2019-01-23T00:46:43.192Z,26.77
2019-01-23T00:49:11.593Z,28.53
2019-01-23T00:51:40.061Z,26.63
2019-01-23T00:54:08.634Z,26.43
2019-01-23T00:56:37.036Z,27.93
2019-01-23T00:59:05.621Z,26.80
2019-01-23T01:01:34.456Z,27.13
2019-01-23T01:04:03.237Z,26.47
2019-01-23T01:06:31.662Z,26.90
2019-01-23T01:09:00.059Z,26.40
2019-01-23T01:11:28.468Z,25.87
2019-01-23T01:13:56.918Z,28.17
2019-01-23T01:16:25.320Z,25.97
2019-01-23T01:18:53.722Z,26.77
2019-01-23T01:21:22.424Z,26.37
2019-01-23T01:23:50.820Z,27.63
2019-01-23T01:26:19.257Z,26.90
2019-01-23T01:28:47.706Z,27.77
2019-01-23T01:31:16.123Z,27.87
2019-01-23T01:33:44.528Z,26.57
2019-01-23T01:36:12.964Z,27.70
2019-01-23T01:38:41.680Z,27.50
2019-01-23T01:41:10.149Z,27.57
2019-01-23T01:43:38.668Z,26.47
2019-01-23T01:46:07.069Z,26.23
2019-01-23T01:48:35.464Z,26.50
2019-01-23T01:51:03.970Z,26.90
2019-01-23T01:53:32.365Z,26.20
2019-01-23T01:56:00.766Z,25.37
2019-01-23T01:58:29.537Z,26.40
2019-01-23T02:00:57.940Z,26.70
2019-01-23T02:03:26.346Z,26.33
2019-01-23T02:05:54.784Z,26.33
2019-01-23T02:08:23.195Z,26.17
2019-01-23T02:10:51.598Z,25.53
2019-01-23T02:13:20.021Z,26.23
2019-01-23T02:15:48.425Z,26.53
2019-01-23T02:18:16.820Z,26.67
2019-01-23T02:20:45.259Z,25.80
2019-01-23T02:23:13.663Z,26.37
2019-01-23T02:25:42.063Z,25.90
2019-01-23T02:28:10.497Z,25.07
2019-01-23T02:30:38.898Z,26.23
2019-01-23T02:33:07.469Z,25.13
2019-01-23T02:35:35.894Z,26.17
2019-01-23T02:38:04.561Z,24.80
2019-01-23T02:40:32.960Z,24.80
2019-01-23T02:43:01.402Z,24.47
2019-01-23T02:45:29.804Z,25.27
2019-01-23T02:47:58.219Z,25.30
2019-01-23T02:50:26.632Z,25.87
2019-01-23T02:52:55.057Z,24.23
2019-01-23T02:55:23.457Z,24.37
2019-01-23T02:57:51.858Z,24.63
2019-01-23T03:00:20.720Z,26.27
2019-01-23T03:02:49.262Z,24.83
2019-01-23T03:05:19.176Z,24.73
2019-01-23T03:07:47.746Z,24.33
2019-01-23T03:10:18.084Z,23.23
2019-01-23T03:12:46.617Z,24.93
2019-01-23T03:15:16.504Z,23.93
2019-01-23T03:17:45.052Z,24.00
2019-01-23T03:20:15.992Z,25.40
2019-01-23T03:22:44.407Z,24.17
2019-01-23T03:25:13.661Z,23.17
2019-01-23T03:27:42.160Z,23.10
2019-01-23T03:30:18.905Z,23.07
2019-01-23T03:32:47.477Z,23.07
2019-01-23T03:35:16.249Z,23.07
2019-01-23T03:37:44.765Z,23.07
2019-01-23T03:40:15.893Z,22.40
2019-01-23T03:42:44.288Z,23.03
2019-01-23T03:45:14.252Z,22.93
2019-01-23T03:47:42.768Z,23.53
2019-01-23T03:50:13.937Z,21.57
2019-01-23T03:52:42.342Z,22.93
2019-01-23T03:55:12.275Z,21.73
2019-01-23T03:57:40.702Z,22.60
2019-01-23T04:00:14.364Z,22.63
2019-01-23T04:02:43.029Z,22.37
2019-01-23T04:05:11.992Z,22.03
2019-01-23T04:07:40.396Z,21.63
2019-01-23T04:10:11.539Z,21.07
2019-01-23T04:12:39.967Z,21.70
2019-01-23T04:15:10.524Z,21.97
2019-01-23T04:17:40.469Z,21.87
2019-01-23T04:20:12.207Z,21.93
2019-01-23T04:22:41.758Z,21.40
2019-01-23T04:25:10.595Z,21.33
2019-01-23T04:27:41.873Z,22.20
2019-01-23T04:30:16.196Z,21.20
2019-01-23T04:32:44.612Z,22.27
2019-01-23T04:35:13.304Z,21.20
2019-01-23T04:37:42.783Z,22.00
2019-01-23T04:40:13.408Z,22.43
2019-01-23T04:42:41.814Z,21.73
2019-01-23T04:45:13.115Z,22.00
2019-01-23T04:47:41.565Z,22.33
2019-01-23T04:50:12.379Z,22.27
2019-01-23T04:52:48.037Z,22.93
2019-01-23T04:55:16.478Z,22.43
2019-01-23T04:57:44.878Z,22.20
2019-01-23T05:00:15.589Z,21.93
2019-01-23T05:02:44.007Z,23.17
2019-01-23T05:05:12.632Z,23.70
2019-01-23T05:07:41.091Z,22.17
2019-01-23T05:10:09.607Z,24.37
2019-01-23T05:12:38.008Z,23.43
2019-01-23T05:15:09.197Z,23.90
2019-01-23T05:17:37.592Z,23.47
2019-01-23T05:20:14.942Z,23.47
2019-01-23T05:22:43.351Z,24.30
2019-01-23T05:25:12.488Z,25.37
2019-01-23T05:27:41.088Z,23.77
2019-01-23T05:30:15.628Z,25.43
2019-01-23T05:32:44.032Z,26.07
2019-01-23T05:35:12.700Z,24.30
2019-01-23T05:37:41.100Z,26.30
2019-01-23T05:40:10.140Z,25.57
2019-01-23T05:42:38.568Z,26.63
2019-01-23T05:45:10.672Z,25.57
2019-01-23T05:47:39.140Z,25.93
2019-01-23T05:50:11.012Z,26.97
2019-01-23T05:52:39.451Z,26.93
2019-01-23T05:55:09.535Z,26.83
2019-01-23T05:57:38.737Z,25.40
2019-01-23T06:00:19.356Z,27.13
2019-01-23T06:02:47.883Z,26.03
2019-01-23T06:05:16.913Z,27.33
2019-01-23T06:07:45.308Z,28.23
2019-01-23T06:10:14.171Z,28.40
2019-01-23T06:12:42.575Z,29.20
2019-01-23T06:15:13.377Z,29.50
2019-01-23T06:17:41.806Z,27.80
2019-01-23T06:20:18.742Z,29.13
2019-01-23T06:22:47.242Z,28.03
2019-01-23T06:25:15.657Z,27.77
2019-01-23T06:27:44.123Z,28.70
2019-01-23T06:30:18.602Z,29.23
2019-01-23T06:32:47.024Z,27.97
2019-01-23T06:35:15.958Z,27.63
2019-01-23T06:37:44.430Z,28.83
2019-01-23T06:40:14.865Z,30.23
2019-01-23T06:42:43.465Z,32.13
2019-01-23T06:45:13.804Z,32.47
2019-01-23T06:47:42.278Z,31.93
2019-01-23T06:50:13.804Z,30.77
2019-01-23T06:52:42.253Z,30.30
2019-01-23T06:55:11.488Z,27.67
2019-01-23T06:57:39.916Z,27.67
2019-01-23T07:00:19.790Z,28.47
2019-01-23T07:02:48.390Z,27.37
2019-01-23T07:05:17.032Z,27.77
2019-01-23T07:07:45.428Z,27.27
2019-01-23T07:10:19.600Z,28.10
2019-01-23T07:12:48.220Z,27.90
2019-01-23T07:15:16.856Z,27.67
2019-01-23T07:17:45.276Z,29.43
2019-01-23T07:20:21.604Z,27.80
2019-01-23T07:22:50.041Z,28.13
2019-01-23T07:25:18.611Z,27.93
2019-01-23T07:27:47.088Z,27.73
2019-01-23T07:30:24.576Z,27.40
2019-01-23T07:32:53.084Z,28.57
2019-01-23T07:35:21.485Z,29.40
2019-01-23T07:37:49.961Z,27.50
2019-01-23T07:40:18.428Z,27.43
2019-01-23T07:42:46.822Z,26.77
2019-01-23T07:45:18.417Z,29.17
2019-01-23T07:47:46.935Z,27.60
2019-01-23T07:50:15.706Z,29.00
2019-01-23T07:52:44.477Z,28.83
2019-01-23T07:55:15.435Z,27.10
2019-01-23T07:57:43.841Z,26.83
2019-01-23T08:00:17.738Z,27.33
2019-01-23T08:02:46.476Z,26.80
2019-01-23T08:05:19.484Z,27.77
2019-01-23T08:07:48.812Z,28.27
2019-01-23T08:10:18.823Z,25.80
2019-01-23T08:12:47.496Z,27.57
2019-01-23T08:15:18.905Z,26.80
2019-01-23T08:17:47.377Z,26.10
2019-01-23T08:20:18.528Z,26.70
2019-01-23T08:22:47.019Z,28.37
2019-01-23T08:25:15.756Z,27.37
2019-01-23T08:27:44.180Z,26.27
2019-01-23T08:30:15.883Z,27.30
2019-01-23T08:32:44.282Z,28.30
2019-01-23T08:35:13.421Z,26.27
2019-01-23T08:37:41.855Z,27.77
2019-01-23T08:40:15.338Z,28.17
2019-01-23T08:42:43.968Z,26.43
2019-01-23T08:45:14.080Z,27.10
2019-01-23T08:47:42.477Z,25.57
2019-01-23T08:50:25.636Z,26.97
2019-01-23T08:52:54.102Z,26.63
2019-01-23T08:55:23.026Z,25.53
2019-01-23T08:57:51.577Z,26.50
2019-01-23T09:00:20.215Z,25.77
2019-01-23T09:02:48.624Z,25.63
2019-01-23T09:05:17.325Z,26.17
2019-01-23T09:07:46.005Z,26.03
2019-01-23T09:10:17.707Z,24.53
2019-01-23T09:12:46.487Z,24.83
2019-01-23T09:15:16.530Z,26.87
2019-01-23T09:17:45.030Z,25.90
2019-01-23T09:20:16.426Z,26.53
2019-01-23T09:22:44.844Z,26.80
2019-01-23T09:25:16.361Z,25.80
2019-01-23T09:27:44.876Z,27.57
2019-01-23T09:30:37.573Z,27.77
2019-01-23T09:33:24.412Z,26.40
2019-01-23T09:36:11.218Z,26.27
2019-01-23T09:38:42.840Z,24.07
2019-01-23T09:41:14.332Z,24.93
2019-01-23T09:44:15.964Z,24.20
2019-01-23T09:46:53.412Z,24.37
2019-01-23T09:49:25.828Z,24.57
2019-01-23T09:52:32.413Z,25.13
2019-01-23T09:55:00.793Z,23.77
2019-01-23T09:57:29.188Z,24.73
2019-01-23T09:59:57.625Z,25.60
2019-01-23T10:02:26.036Z,24.37
2019-01-23T10:04:54.521Z,24.30
2019-01-23T10:07:22.919Z,24.27
2019-01-23T10:09:51.309Z,25.20
2019-01-23T10:12:19.862Z,23.50
2019-01-23T10:14:48.433Z,24.93
2019-01-23T10:17:16.827Z,24.07
2019-01-23T10:19:45.252Z,23.87
2019-01-23T10:22:13.664Z,23.17
2019-01-23T10:24:42.066Z,24.00
2019-01-23T10:27:10.512Z,24.23
2019-01-23T10:29:38.923Z,22.67
2019-01-23T10:32:07.312Z,24.00
2019-01-23T10:34:35.775Z,23.30
2019-01-23T10:37:04.508Z,23.87
2019-01-23T10:39:32.911Z,23.93
2019-01-23T10:42:01.496Z,23.70
2019-01-23T10:44:29.903Z,24.07
2019-01-23T10:46:58.807Z,23.20
2019-01-23T10:49:27.202Z,24.17
2019-01-23T10:51:55.596Z,24.10
2019-01-23T10:54:24.028Z,23.30
2019-01-23T10:56:52.763Z,24.30
2019-01-23T10:59:21.189Z,24.37
2019-01-23T11:01:49.716Z,24.30
2019-01-23T11:04:18.141Z,24.03
2019-01-23T11:06:46.614Z,24.10
2019-01-23T11:09:15.275Z,24.23
2019-01-23T11:11:43.770Z,24.07
2019-01-23T11:14:12.267Z,23.10
2019-01-23T11:16:40.773Z,24.40
2019-01-23T11:19:09.164Z,23.87
2019-01-23T11:21:37.585Z,23.97
2019-01-23T11:24:05.980Z,24.07
2019-01-23T11:26:34.485Z,25.27
2019-01-23T11:29:02.879Z,24.93
2019-01-23T11:31:31.292Z,24.90
2019-01-23T11:33:59.717Z,24.80
2019-01-23T11:36:28.110Z,23.40
2019-01-23T11:38:56.502Z,24.40
2019-01-23T11:41:24.941Z,25.47
2019-01-23T11:43:53.328Z,23.97
2019-01-23T11:46:21.792Z,24.33
2019-01-23T11:48:50.335Z,24.00
2019-01-23T11:51:18.731Z,24.93
2019-01-23T11:53:47.123Z,23.47
2019-01-23T11:56:15.554Z,23.90
2019-01-23T11:58:43.956Z,24.03
2019-01-23T12:01:12.378Z,24.80
2019-01-23T12:03:41.090Z,23.47
2019-01-23T12:06:09.489Z,23.20
2019-01-23T12:08:37.884Z,24.70
2019-01-23T12:11:06.653Z,23.67
2019-01-23T12:13:35.040Z,23.93
2019-01-23T12:16:03.438Z,23.77
2019-01-23T12:18:31.876Z,23.40
2019-01-23T12:21:00.270Z,24.13
2019-01-23T12:23:28.661Z,25.20
2019-01-23T12:25:57.407Z,24.37
2019-01-23T12:28:25.805Z,24.20
2019-01-23T12:30:54.196Z,23.13
2019-01-23T12:33:22.644Z,27.03
2019-01-23T12:35:51.073Z,22.73
2019-01-23T12:38:19.468Z,24.50
2019-01-23T12:40:47.872Z,23.57
2019-01-23T12:43:16.276Z,23.53
2019-01-23T12:45:44.684Z,23.50
2019-01-23T12:48:13.112Z,23.00
2019-01-23T12:50:41.520Z,23.73
2019-01-23T12:53:09.981Z,22.90
2019-01-23T12:55:38.399Z,23.30
2019-01-23T12:58:06.795Z,23.37
2019-01-23T13:00:35.236Z,24.10
2019-01-23T13:03:03.796Z,23.83
2019-01-23T13:05:32.200Z,23.83
2019-01-23T13:08:00.639Z,23.17
2019-01-23T13:10:29.041Z,23.07
2019-01-23T13:12:57.439Z,23.33
2019-01-23T13:15:27.674Z,23.40
2019-01-23T13:17:56.503Z,23.23
2019-01-23T13:20:26.481Z,23.50
2019-01-23T13:22:55.129Z,23.63
2019-01-23T13:25:25.764Z,23.77
2019-01-23T13:27:54.624Z,23.73
2019-01-23T13:30:24.787Z,23.00
2019-01-23T13:32:53.565Z,22.30
2019-01-23T13:35:24.776Z,23.20
2019-01-23T13:37:53.181Z,22.47
2019-01-23T13:40:30.165Z,23.30
2019-01-23T13:42:58.559Z,24.07
2019-01-23T13:45:27.223Z,23.40
2019-01-23T13:47:55.927Z,23.33
2019-01-23T13:50:24.324Z,22.57
2019-01-23T13:52:52.712Z,23.37
2019-01-23T13:55:22.961Z,21.87
2019-01-23T13:57:51.363Z,22.43
2019-01-23T14:00:37.664Z,21.90
2019-01-23T14:03:06.599Z,22.67
2019-01-23T14:05:35.004Z,22.17
2019-01-23T14:08:04.785Z,21.43
2019-01-23T14:10:33.181Z,21.33
2019-01-23T14:13:01.604Z,22.87
2019-01-23T14:15:35.408Z,21.07
2019-01-23T14:18:04.914Z,22.57
2019-01-23T14:20:33.422Z,23.40
2019-01-23T14:23:01.900Z,22.00
2019-01-23T14:25:30.295Z,22.40
2019-01-23T14:27:58.944Z,22.27
2019-01-23T14:30:30.175Z,23.87
2019-01-23T14:32:58.745Z,24.40
2019-01-23T14:35:27.817Z,23.70
2019-01-23T14:38:00.518Z,24.80
2019-01-23T14:40:26.670Z,24.67
2019-01-23T14:42:55.092Z,25.30
2019-01-23T14:45:23.634Z,25.33
2019-01-23T14:47:52.134Z,24.60
2019-01-23T14:50:21.884Z,24.60
2019-01-23T14:52:50.346Z,25.73
2019-01-23T14:55:19.131Z,24.33
2019-01-23T14:57:47.766Z,25.00
2019-01-23T15:00:22.128Z,25.47
2019-01-23T15:02:50.558Z,24.77
2019-01-23T15:05:19.324Z,23.67
2019-01-23T15:07:47.948Z,24.70
2019-01-23T15:10:21.429Z,24.77
2019-01-23T15:12:49.826Z,24.73
2019-01-23T15:15:18.910Z,24.30
2019-01-23T15:17:47.467Z,24.23
2019-01-23T15:20:18.894Z,25.30
2019-01-23T15:22:47.299Z,25.30
2019-01-23T15:25:15.837Z,22.20
2019-01-23T15:27:44.240Z,22.20
2019-01-23T15:30:16.340Z,21.00
2019-01-23T15:32:44.736Z,22.27
2019-01-23T15:35:13.291Z,21.83
2019-01-23T15:37:41.745Z,21.13
2019-01-23T15:40:18.819Z,21.70
2019-01-23T15:42:47.427Z,22.63
2019-01-23T15:45:15.830Z,20.93
2019-01-23T15:47:44.632Z,21.23
2019-01-23T15:50:16.176Z,20.87
2019-01-23T15:52:44.572Z,22.40
2019-01-23T15:55:15.760Z,20.63
2019-01-23T15:57:44.157Z,20.97
2019-01-23T16:00:20.969Z,20.80
2019-01-23T16:02:49.500Z,20.87
2019-01-23T16:05:17.906Z,22.33
2019-01-23T16:07:46.301Z,21.47
2019-01-23T16:10:17.649Z,21.20
2019-01-23T16:12:46.036Z,20.73
2019-01-23T16:15:17.273Z,21.10
2019-01-23T16:17:45.778Z,20.77
2019-01-23T16:20:14.749Z,21.33
2019-01-23T16:22:43.384Z,21.50
2019-01-23T16:25:14.693Z,20.37
2019-01-23T16:27:43.353Z,20.90
2019-01-23T16:30:26.664Z,21.90
2019-01-23T16:32:55.288Z,22.60
2019-01-23T16:35:23.681Z,20.60
2019-01-23T16:37:52.344Z,21.10
2019-01-23T16:40:20.948Z,22.17
2019-01-23T16:42:49.650Z,22.17
2019-01-23T16:45:19.882Z,20.90
2019-01-23T16:47:48.526Z,22.43
2019-01-23T16:50:22.696Z,20.80
2019-01-23T16:52:51.080Z,22.40
2019-01-23T16:55:19.678Z,21.43
2019-01-23T16:57:48.760Z,21.60
2019-01-23T17:00:19.868Z,22.03
2019-01-23T17:02:48.413Z,21.60
2019-01-23T17:05:20.073Z,20.83
2019-01-23T17:07:48.536Z,22.77
2019-01-23T17:10:19.436Z,21.87
2019-01-23T17:12:47.877Z,20.97
2019-01-23T17:15:16.449Z,21.50
2019-01-23T17:17:44.907Z,22.60
2019-01-23T17:20:24.750Z,22.80
2019-01-23T17:22:53.196Z,20.53
2019-01-23T17:25:21.656Z,21.53
2019-01-23T17:27:50.092Z,22.53
2019-01-23T17:30:19.820Z,22.30
2019-01-23T17:32:48.293Z,22.37
2019-01-23T17:35:20.795Z,23.23
2019-01-23T17:37:49.352Z,21.80
2019-01-23T17:40:22.885Z,21.97
2019-01-23T17:42:51.318Z,22.33
2019-01-23T17:45:28.440Z,23.33
2019-01-23T17:47:56.944Z,22.33
2019-01-23T17:50:25.508Z,22.60
2019-01-23T17:52:53.903Z,22.17
2019-01-23T17:55:31.080Z,23.33
2019-01-23T17:57:59.481Z,23.07
2019-01-23T18:00:31.353Z,24.13
2019-01-23T18:03:00.345Z,23.17
2019-01-23T18:05:28.748Z,23.43
2019-01-23T18:07:57.140Z,22.30
2019-01-23T18:10:25.941Z,22.07
2019-01-23T18:12:54.336Z,22.97
2019-01-23T18:15:31.598Z,21.80
2019-01-23T18:18:00.060Z,22.23
2019-01-23T18:20:29.601Z,22.20
2019-01-23T18:22:58.105Z,22.60
2019-01-23T18:25:26.665Z,23.17
2019-01-23T18:27:55.056Z,22.87
2019-01-23T18:30:53.136Z,23.40
2019-01-23T18:33:24.644Z,23.10
2019-01-23T18:36:08.086Z,23.63
2019-01-23T18:38:39.548Z,23.20
2019-01-23T18:41:26.060Z,23.53
2019-01-23T18:44:09.568Z,23.93
2019-01-23T18:46:57.599Z,23.30
2019-01-23T18:49:52.519Z,21.77
2019-01-23T18:52:20.918Z,24.23
2019-01-23T18:54:49.370Z,24.10
2019-01-23T18:57:29.569Z,23.80
2019-01-23T18:59:59.386Z,23.47
2019-01-23T19:02:28.044Z,24.07
2019-01-23T19:04:56.486Z,22.30
2019-01-23T19:07:24.884Z,23.70
2019-01-23T19:09:53.276Z,23.80
2019-01-23T19:12:21.704Z,24.30
2019-01-23T19:14:50.099Z,23.07
2019-01-23T19:17:18.570Z,23.67
2019-01-23T19:19:47.016Z,24.60
2019-01-23T19:22:15.409Z,23.23
2019-01-23T19:24:43.837Z,23.60
2019-01-23T19:27:12.528Z,23.43
2019-01-23T19:29:40.920Z,23.60
2019-01-23T19:32:09.318Z,23.57
2019-01-23T19:34:37.805Z,23.90
2019-01-23T19:37:06.458Z,23.80
2019-01-23T19:39:34.840Z,24.17
2019-01-23T19:42:03.288Z,22.57
2019-01-23T19:44:31.680Z,22.83
2019-01-23T19:47:00.075Z,23.20
2019-01-23T19:49:28.512Z,21.80
2019-01-23T19:51:56.907Z,24.13
2019-01-23T19:54:25.306Z,23.43
2019-01-23T19:56:53.743Z,23.43
2019-01-23T19:59:22.145Z,24.00
2019-01-23T20:01:50.540Z,23.17
2019-01-23T20:04:18.990Z,22.57
2019-01-23T20:06:47.385Z,23.77
2019-01-23T20:09:15.784Z,24.00
2019-01-23T20:11:44.220Z,22.33
2019-01-23T20:14:12.804Z,23.03
2019-01-23T20:16:41.214Z,23.10
2019-01-23T20:19:10.214Z,23.53
2019-01-23T20:21:38.607Z,23.50
2019-01-23T20:24:07.000Z,23.23
2019-01-23T20:26:35.440Z,23.90
2019-01-23T20:29:04.369Z,22.63
2019-01-23T20:31:32.763Z,21.47
2019-01-23T20:34:01.192Z,22.60
2019-01-23T20:36:29.588Z,22.63
2019-01-23T20:38:58.028Z,22.97
2019-01-23T20:41:26.428Z,23.73
2019-01-23T20:43:54.820Z,22.83
2019-01-23T20:46:23.291Z,22.07
2019-01-23T20:48:51.660Z,21.40
2019-01-23T20:51:20.056Z,20.83
2019-01-23T20:53:48.633Z,21.37
2019-01-23T20:56:17.059Z,21.30
2019-01-23T20:58:45.456Z,20.13
2019-01-23T21:01:13.889Z,19.47
2019-01-23T21:03:42.281Z,20.90
2019-01-23T21:06:10.759Z,20.70
2019-01-23T21:08:39.197Z,21.47
2019-01-23T21:11:07.592Z,22.10
2019-01-23T21:13:36.049Z,21.40
2019-01-23T21:16:04.553Z,21.37
2019-01-23T21:18:32.948Z,21.83
2019-01-23T21:21:01.349Z,20.83
2019-01-23T21:23:29.780Z,20.97
2019-01-23T21:25:58.178Z,20.40
2019-01-23T21:28:26.577Z,19.87
2019-01-23T21:30:55.005Z,20.97
2019-01-23T21:33:23.423Z,21.27
2019-01-23T21:35:51.890Z,19.10
2019-01-23T21:38:20.338Z,19.27
2019-01-23T21:40:48.736Z,19.40
2019-01-23T21:43:17.158Z,19.10
2019-01-23T21:45:45.572Z,19.30
2019-01-23T21:48:13.968Z,20.13
2019-01-23T21:50:42.364Z,19.73
2019-01-23T21:53:10.806Z,17.80
2019-01-23T21:55:39.220Z,18.47
2019-01-23T21:58:07.620Z,18.97
2019-01-23T22:00:41.625Z,18.73
2019-01-23T22:03:11.157Z,18.03
2019-01-23T22:05:39.732Z,18.93
2019-01-23T22:08:08.381Z,19.30
2019-01-23T22:10:36.780Z,19.20
2019-01-23T22:13:05.262Z,19.37
2019-01-23T22:15:34.211Z,19.43
2019-01-23T22:18:02.768Z,19.60
2019-01-23T22:20:31.160Z,18.80
2019-01-23T22:22:59.597Z,19.40
2019-01-23T22:25:28.074Z,19.03
2019-01-23T22:27:56.501Z,20.23
2019-01-23T22:30:27.608Z,19.60
2019-01-23T22:32:56.078Z,19.77
2019-01-23T22:35:24.503Z,20.63
2019-01-23T22:37:52.896Z,21.03
2019-01-23T22:40:21.453Z,21.00
2019-01-23T22:42:49.884Z,20.73
2019-01-23T22:45:20.218Z,20.33
2019-01-23T22:47:48.607Z,20.97
2019-01-23T22:50:22.803Z,20.10
2019-01-23T22:52:51.476Z,20.20
2019-01-23T22:55:19.944Z,21.87
2019-01-23T22:57:48.579Z,21.53
2019-01-23T23:00:26.313Z,22.00
2019-01-23T23:02:54.732Z,22.80
2019-01-23T23:05:23.111Z,22.03
2019-01-23T23:07:51.717Z,20.87
2019-01-23T23:10:20.244Z,21.57
2019-01-23T23:12:48.639Z,21.23
2019-01-23T23:15:17.496Z,20.83
2019-01-23T23:17:45.908Z,20.90
2019-01-23T23:20:14.298Z,21.43
2019-01-23T23:22:42.996Z,20.90
2019-01-23T23:25:11.561Z,21.63
2019-01-23T23:27:39.953Z,19.90
2019-01-23T23:30:14.205Z,20.37
2019-01-23T23:32:42.614Z,20.77
2019-01-23T23:35:11.032Z,19.97
2019-01-23T23:37:39.445Z,20.20
2019-01-23T23:40:12.854Z,21.90
2019-01-23T23:42:41.293Z,20.83
2019-01-23T23:45:13.128Z,21.43
2019-01-23T23:47:41.528Z,21.37
2019-01-23T23:50:12.909Z,21.83
2019-01-23T23:52:41.390Z,21.87
2019-01-23T23:55:11.356Z,22.20
2019-01-23T23:57:40.152Z,21.43
